This is the latest recevied weather packets stored in our database for station/object K3SV. If no packets are shown the sender has not sent any weather packets the latest 10 day(s).
| Time | Temp. | Humidity | Pressure | Rain* | Wind** | Luminosity | Snow |
|---|---|---|---|---|---|---|---|
| 1777992492 | 26.67° C | 62% | 1016.5 hPa | 0 mm | - | 536 W/m² | - |
| 1777992191 | 27.22° C | 64% | 1016.4 hPa | 0 mm | - | 519 W/m² | - |
| 1777991888 | 26.67° C | 64% | 1016.4 hPa | 0 mm | - | 541 W/m² | - |
| 1777991585 | 27.22° C | 62% | 1016.2 hPa | 0 mm | - | 438 W/m² | - |
| 1777991282 | 26.11° C | 68% | 1016.3 hPa | 0 mm | - | 325 W/m² | - |
| 1777990979 | 26.11° C | 70% | 1016.1 hPa | 0 mm | - | 451 W/m² | - |
| 1777990677 | 25.56° C | 69% | 1016.3 hPa | 0 mm | - | 468 W/m² | - |
| 1777990374 | 25.56° C | 71% | 1016.1 hPa | 0 mm | - | 428 W/m² | - |
| 1777990069 | 25.56° C | 72% | 1016.3 hPa | 0 mm | - | 439 W/m² | - |
| 1777989766 | 25° C | 71% | 1016.2 hPa | 0 mm | - | 397 W/m² | - |
| 1777989463 | 25° C | 73% | 1016.2 hPa | 0 mm | - | 363 W/m² | - |
| 1777989160 | 25.56° C | 72% | 1015.9 hPa | 0 mm | - | 374 W/m² | - |
| 1777988856 | 25.56° C | 72% | 1015.9 hPa | 0 mm | - | 371 W/m² | - |
| 1777988554 | 25.56° C | 73% | 1015.9 hPa | 0 mm | - | 360 W/m² | - |
| 1777988250 | 25° C | 73% | 1015.9 hPa | 0 mm | - | 327 W/m² | - |
| 1777987947 | 24.44° C | 75% | 1016.2 hPa | 0 mm | - | 322 W/m² | - |
| 1777987642 | 25° C | 74% | 1016.1 hPa | 0 mm | - | 316 W/m² | - |
| 1777987340 | 24.44° C | 77% | 1016 hPa | 0 mm | - | 316 W/m² | - |
| 1777987037 | 23.33° C | 80% | 1016 hPa | 0 mm | - | 329 W/m² | - |
| 1777986734 | 23.89° C | 79% | 1016.1 hPa | 0 mm | - | 127 W/m² | - |
| 1777986432 | 23.33° C | 79% | 1016.1 hPa | 0 mm | - | 275 W/m² | - |
| 1777986130 | 22.78° C | 81% | 1016.1 hPa | 0 mm | - | 255 W/m² | - |
| 1777985826 | 22.78° C | 81% | 1016 hPa | 0 mm | - | 230 W/m² | - |
| 1777985524 | 22.78° C | 82% | 1015.9 hPa | 0 mm | - | 218 W/m² | - |
| 1777985220 | 22.22° C | 83% | 1015.9 hPa | 0 mm | - | 194 W/m² | - |
* Rain latest hour (hover to see other rain measurements)
** Current wind speed in m/s (hover to see current wind gust speed)